createdAt,value
2022-09-21T00:03:36.386Z,66.78
2022-09-21T00:08:39.692Z,66.88
2022-09-21T00:13:46.683Z,66.86
2022-09-21T00:18:49.583Z,66.84
2022-09-21T00:23:52.322Z,66.71
2022-09-21T00:28:57.885Z,67.16
2022-09-21T00:34:01.210Z,67.12
2022-09-21T00:39:04.798Z,67.19
2022-09-21T00:44:25.533Z,67.05
2022-09-21T00:49:29.105Z,67.38
2022-09-21T00:54:37.000Z,67.55
2022-09-21T00:59:41.921Z,67.31
2022-09-21T01:04:45.458Z,67.58
2022-09-21T01:09:50.332Z,67.32
2022-09-21T01:15:00.336Z,67.36
2022-09-21T01:20:53.812Z,67.46
2022-09-21T01:26:04.887Z,67.25
2022-09-21T01:31:13.045Z,67.08
2022-09-21T01:36:18.612Z,67.39
2022-09-21T01:41:25.974Z,67.08
2022-09-21T01:46:31.936Z,66.98
2022-09-21T01:51:35.041Z,66.84
2022-09-21T01:56:41.742Z,67.06
2022-09-21T02:01:49.233Z,66.97
2022-09-21T02:06:54.841Z,66.77
2022-09-21T02:11:58.379Z,66.71
2022-09-21T02:17:08.477Z,66.60
2022-09-21T02:22:15.270Z,66.48
2022-09-21T02:27:27.615Z,66.47
2022-09-21T02:32:37.969Z,66.41
2022-09-21T02:37:46.330Z,66.42
2022-09-21T02:42:51.356Z,66.53
2022-09-21T02:47:59.328Z,66.15
2022-09-21T02:53:03.119Z,66.20
2022-09-21T02:58:07.806Z,66.13
2022-09-21T03:03:20.116Z,66.18
2022-09-21T03:08:23.825Z,66.08
2022-09-21T03:13:26.603Z,66.18
2022-09-21T03:18:31.047Z,66.17
2022-09-21T03:23:33.823Z,65.97
2022-09-21T03:28:36.774Z,65.81
2022-09-21T03:33:40.872Z,65.67
2022-09-21T03:38:43.846Z,65.80
2022-09-21T03:43:46.616Z,65.70
2022-09-21T03:48:50.692Z,65.71
2022-09-21T03:53:53.553Z,65.85
2022-09-21T03:58:56.486Z,65.70
2022-09-21T04:04:00.615Z,65.62
2022-09-21T04:09:03.609Z,65.65
2022-09-21T04:14:06.387Z,65.39
2022-09-21T04:19:10.467Z,65.91
2022-09-21T04:24:13.201Z,65.89
2022-09-21T04:29:16.787Z,65.68
2022-09-21T04:34:21.165Z,65.42
2022-09-21T04:39:24.147Z,65.56
2022-09-21T04:44:26.928Z,65.77
2022-09-21T04:49:31.051Z,65.62
2022-09-21T04:54:33.819Z,65.56
2022-09-21T04:59:37.011Z,65.48
2022-09-21T05:04:41.158Z,65.72
2022-09-21T05:10:01.089Z,65.40
2022-09-21T05:15:04.031Z,65.86
2022-09-21T05:20:08.870Z,65.69
2022-09-21T05:25:11.573Z,65.43
2022-09-21T05:30:15.687Z,65.59
2022-09-21T05:35:27.407Z,65.53
2022-09-21T05:40:30.707Z,65.12
2022-09-21T05:45:34.300Z,65.32
2022-09-21T05:50:51.003Z,65.01
2022-09-21T05:55:57.563Z,65.06
2022-09-21T06:01:10.275Z,65.02
2022-09-21T06:06:14.442Z,64.98
2022-09-21T06:11:17.319Z,64.85
2022-09-21T06:16:20.131Z,64.45
2022-09-21T06:21:24.308Z,64.33
2022-09-21T06:26:28.725Z,62.97
2022-09-21T06:31:31.560Z,61.49
2022-09-21T06:36:35.670Z,60.47
2022-09-21T06:41:38.331Z,58.79
2022-09-21T06:46:45.914Z,57.53
2022-09-21T06:51:50.030Z,57.33
2022-09-21T06:56:55.784Z,57.17
2022-09-21T07:02:00.848Z,56.92
2022-09-21T07:07:05.298Z,56.74
2022-09-21T07:12:08.376Z,56.47
2022-09-21T07:17:15.597Z,56.36
2022-09-21T07:22:19.973Z,56.36
2022-09-21T07:27:22.800Z,56.05
2022-09-21T07:32:26.740Z,56.07
2022-09-21T07:37:32.857Z,55.90
2022-09-21T07:42:35.546Z,55.96
2022-09-21T07:47:38.332Z,55.88
2022-09-21T07:52:42.930Z,56.01
2022-09-21T07:58:03.493Z,56.01
2022-09-21T08:03:06.412Z,55.76
2022-09-21T08:08:10.715Z,55.64
2022-09-21T08:13:13.686Z,55.59
2022-09-21T08:18:16.458Z,55.46
2022-09-21T08:23:20.467Z,55.54
2022-09-21T08:28:23.248Z,55.50
2022-09-21T08:33:29.524Z,55.68
2022-09-21T08:38:36.143Z,55.57
2022-09-21T08:43:42.172Z,55.92
2022-09-21T08:48:48.504Z,55.48
2022-09-21T08:53:53.950Z,55.48
2022-09-21T08:58:56.669Z,55.83
2022-09-21T09:04:10.454Z,55.80
2022-09-21T09:09:28.349Z,55.66
2022-09-21T09:14:47.514Z,55.84
2022-09-21T09:19:52.899Z,55.98
2022-09-21T09:24:58.881Z,56.26
2022-09-21T09:30:04.671Z,56.24
2022-09-21T09:35:17.922Z,56.65
2022-09-21T09:40:30.986Z,56.23
2022-09-21T09:45:40.967Z,56.40
2022-09-21T09:50:43.917Z,56.32
2022-09-21T09:55:49.983Z,56.18
2022-09-21T10:00:54.052Z,56.34
2022-09-21T10:05:56.955Z,56.42
2022-09-21T10:11:01.144Z,56.36
2022-09-21T10:16:06.249Z,56.48
2022-09-21T10:21:10.399Z,56.37
2022-09-21T10:26:14.983Z,56.44
2022-09-21T10:31:21.516Z,56.78
2022-09-21T10:36:32.878Z,56.65
2022-09-21T10:41:37.661Z,56.50
2022-09-21T10:46:40.435Z,56.71
2022-09-21T10:51:46.083Z,56.84
2022-09-21T10:56:55.641Z,56.75
2022-09-21T11:01:59.869Z,56.55
2022-09-21T11:07:10.006Z,56.81
2022-09-21T11:12:26.724Z,56.90
2022-09-21T11:17:43.176Z,56.76
2022-09-21T11:22:57.321Z,56.86
2022-09-21T11:28:07.123Z,56.94
2022-09-21T11:33:20.346Z,56.63
2022-09-21T11:38:35.499Z,56.76
2022-09-21T11:44:09.787Z,56.95
2022-09-21T11:49:38.675Z,57.00
2022-09-21T11:54:52.824Z,56.79
2022-09-21T12:00:16.129Z,56.85
2022-09-21T12:05:23.815Z,56.84
2022-09-21T12:10:41.329Z,57.01
2022-09-21T12:15:50.225Z,56.80
2022-09-21T12:20:57.858Z,56.52
2022-09-21T12:26:03.348Z,56.77
2022-09-21T12:31:11.096Z,56.77
2022-09-21T12:36:18.136Z,56.91
2022-09-21T12:41:25.893Z,57.39
2022-09-21T12:46:32.506Z,57.42
2022-09-21T12:51:37.179Z,57.63
2022-09-21T12:56:44.850Z,57.38
2022-09-21T13:01:56.970Z,57.63
2022-09-21T13:07:15.053Z,57.83
2022-09-21T13:12:21.100Z,57.99
2022-09-21T13:17:30.623Z,57.93
2022-09-21T13:22:34.602Z,57.80
2022-09-21T13:28:01.508Z,58.04
2022-09-21T13:33:39.141Z,57.84
2022-09-21T13:38:59.087Z,57.75
2022-09-21T13:44:05.317Z,57.97
2022-09-21T13:49:20.095Z,57.98
2022-09-21T13:54:25.406Z,57.65
2022-09-21T13:59:29.015Z,57.99
2022-09-21T14:04:36.703Z,57.69
2022-09-21T14:09:42.891Z,57.75
2022-09-21T14:15:12.747Z,57.85
2022-09-21T14:20:33.590Z,57.73
2022-09-21T14:25:50.715Z,57.78
2022-09-21T14:30:59.037Z,57.97
2022-09-21T14:36:08.659Z,57.96
2022-09-21T14:41:18.058Z,57.83
2022-09-21T14:46:59.951Z,57.82
2022-09-21T14:52:22.260Z,57.93
2022-09-21T14:57:52.325Z,58.11
2022-09-21T15:03:25.249Z,58.23
2022-09-21T15:09:02.321Z,57.90
2022-09-21T15:14:16.955Z,57.95
2022-09-21T15:19:24.713Z,58.00
2022-09-21T15:24:31.277Z,57.79
2022-09-21T15:29:34.413Z,58.02
2022-09-21T15:34:37.457Z,57.97
2022-09-21T15:39:41.766Z,57.87
2022-09-21T15:44:48.663Z,57.86
2022-09-21T15:49:54.001Z,57.90
2022-09-21T15:55:00.324Z,57.83
2022-09-21T16:00:05.428Z,58.08
2022-09-21T16:05:13.993Z,58.02
2022-09-21T16:10:40.424Z,57.76
2022-09-21T16:15:43.319Z,57.76
2022-09-21T16:20:48.223Z,57.78
2022-09-21T22:04:47.248Z,64.18
2022-09-21T22:09:50.294Z,63.97
2022-09-21T22:14:52.964Z,64.03
2022-09-21T22:19:56.925Z,64.05
2022-09-21T22:24:59.520Z,63.86
2022-09-21T22:30:02.125Z,63.92
2022-09-21T22:35:06.966Z,63.80
2022-09-21T22:40:10.550Z,63.77
2022-09-21T22:45:13.309Z,63.61
2022-09-21T22:50:17.452Z,63.47
2022-09-21T22:55:20.371Z,63.54
2022-09-21T23:00:23.085Z,63.51
2022-09-21T23:05:27.541Z,63.52
2022-09-21T23:10:30.283Z,63.60
2022-09-21T23:15:32.956Z,63.78
2022-09-21T23:20:37.237Z,63.50
2022-09-21T23:25:39.956Z,63.34
2022-09-21T23:30:42.654Z,63.76
2022-09-21T23:35:46.799Z,63.76
2022-09-21T23:40:49.478Z,63.45
2022-09-21T23:45:52.431Z,63.83
2022-09-21T23:50:56.893Z,63.52
2022-09-21T23:56:00.073Z,63.49
